Time;durP1;ratioP1;P1;durP2;ratioP2;P2;SDS_P1;SDS_P2;PMS_P1;PMS_P2;Temp;Humidity;BMP_temperature;BMP_pressure;BME280_temperature;BME280_humidity;BME280_pressure;Samples;Min_cycle;Max_cycle;Signal;HPM_P1;HPM_P2
2022/04/25 00:00:11;;;;;;;2.63;2.33;;;;;19.50;99656.00;;;;2071608;28;20211;-45
2022/04/25 00:01:11;;;;;;;1.87;1.77;;;;;19.50;99648.00;;;;2076184;28;20217;-45
2022/04/25 00:02:11;;;;;;;2.57;2.37;;;;;19.50;99638.00;;;;2079619;28;20212;-46
2022/04/25 00:03:12;;;;;;;2.47;2.27;;;;;19.50;99628.00;;;;2079642;28;20218;-46
2022/04/25 00:04:12;;;;;;;2.17;2.07;;;;;19.50;99561.00;;;;2079541;28;20252;-46
2022/04/25 00:05:12;;;;;;;1.90;1.80;;;;;19.50;99620.00;;;;2079250;28;20241;-46
2022/04/25 00:06:13;;;;;;;2.27;2.07;;;;;19.50;99614.00;;;;2079067;28;20210;-46
2022/04/25 00:07:13;;;;;;;1.73;1.63;;;;;19.50;99617.00;;;;2078726;28;20214;-45
2022/04/25 00:08:13;;;;;;;2.23;2.03;;;;;19.50;99623.00;;;;2078193;28;20209;-46
2022/04/25 00:09:14;;;;;;;1.83;1.73;;;;;19.50;99635.00;;;;2079577;28;20696;-46
2022/04/25 00:10:14;;;;;;;2.50;2.30;;;;;19.50;99637.00;;;;2079502;28;21095;-48
2022/04/25 00:11:15;;;;;;;1.97;1.87;;;;;19.50;99596.00;;;;2079515;28;20210;-46
2022/04/25 00:12:15;;;;;;;2.20;2.00;;;;;19.50;99643.00;;;;2079624;28;20554;-45
2022/04/25 00:13:16;;;;;;;2.90;2.07;;;;;19.50;99652.00;;;;2079610;28;20214;-46
2022/04/25 00:14:16;;;;;;;1.90;1.80;;;;;19.50;99655.00;;;;2074689;28;20226;-46
2022/04/25 00:15:16;;;;;;;2.00;1.90;;;;;19.30;99649.00;;;;2073225;28;20217;-46
2022/04/25 00:16:18;;;;;;;2.30;2.20;;;;;19.50;99658.00;;;;2072246;28;20219;-46
2022/04/25 00:17:18;;;;;;;2.10;2.00;;;;;19.50;99659.00;;;;2074884;28;20252;-45
2022/04/25 00:18:19;;;;;;;2.07;1.87;;;;;19.50;99661.00;;;;2071358;28;20659;-46
2022/04/25 00:19:19;;;;;;;2.30;2.10;;;;;19.50;99651.00;;;;2070989;28;20276;-45
2022/04/25 00:20:19;;;;;;;1.90;1.80;;;;;19.50;99664.00;;;;2071405;28;20222;-45
2022/04/25 00:21:20;;;;;;;1.80;1.70;;;;;19.50;99661.00;;;;2071556;28;20316;-45
2022/04/25 00:22:20;;;;;;;2.07;1.97;;;;;19.50;99665.00;;;;2079615;28;20224;-47
2022/04/25 00:23:22;;;;;;;1.73;1.63;;;;;19.50;99668.00;;;;2079451;28;20217;-45
2022/04/25 00:24:22;;;;;;;1.80;1.70;;;;;19.50;99666.00;;;;2079240;28;20222;-45
2022/04/25 00:25:22;;;;;;;1.90;1.80;;;;;19.50;99667.00;;;;2078187;28;20498;-46
2022/04/25 00:26:23;;;;;;;1.80;1.70;;;;;19.50;99661.00;;;;2079271;28;20631;-46
2022/04/25 00:27:25;;;;;;;1.90;1.80;;;;;19.50;99657.00;;;;2079384;28;20224;-46
2022/04/25 00:28:25;;;;;;;2.17;2.00;;;;;19.50;99654.00;;;;2079478;28;20221;-46
2022/04/25 00:29:26;;;;;;;1.90;1.80;;;;;19.50;99663.00;;;;2079221;28;20283;-46
2022/04/25 00:30:28;;;;;;;2.03;1.83;;;;;19.50;99655.00;;;;2075075;28;20213;-46
2022/04/25 00:31:28;;;;;;;2.00;1.85;;;;;19.50;99659.00;;;;2076637;28;20209;-46
2022/04/25 00:32:29;;;;;;;2.23;1.97;;;;;19.50;99661.00;;;;2078873;28;20214;-46
2022/04/25 00:33:29;;;;;;;2.80;1.73;;;;;19.50;99660.00;;;;2079545;28;20205;-45
2022/04/25 00:34:29;;;;;;;2.30;2.10;;;;;19.50;99657.00;;;;2079313;28;20217;-46
2022/04/25 00:35:30;;;;;;;2.20;2.00;;;;;19.50;99657.00;;;;2078827;28;20752;-46
2022/04/25 00:36:30;;;;;;;2.00;1.90;;;;;19.50;99656.00;;;;2079371;28;20217;-46
2022/04/25 00:37:30;;;;;;;2.00;1.90;;;;;19.50;99653.00;;;;2079219;28;20690;-45
2022/04/25 00:38:31;;;;;;;1.67;1.57;;;;;19.50;99655.00;;;;2079573;28;20596;-46
2022/04/25 00:39:31;;;;;;;1.90;1.80;;;;;19.50;99662.00;;;;2079406;28;20260;-46
2022/04/25 00:40:32;;;;;;;2.00;1.90;;;;;19.50;99664.00;;;;2079622;28;20220;-45
2022/04/25 00:41:32;;;;;;;3.50;1.90;;;;;19.50;99593.00;;;;2079597;28;20221;-45
2022/04/25 00:42:33;;;;;;;2.10;1.90;;;;;19.50;99660.00;;;;2070338;28;20256;-45
2022/04/25 00:43:33;;;;;;;2.03;1.87;;;;;19.50;99660.00;;;;2070737;28;20249;-45
2022/04/25 00:44:33;;;;;;;1.97;1.87;;;;;19.50;99660.00;;;;2070350;28;20222;-45
2022/04/25 00:45:34;;;;;;;2.23;2.03;;;;;19.50;99658.00;;;;2071341;28;20237;-47
2022/04/25 00:46:34;;;;;;;1.90;1.70;;;;;19.50;99594.00;;;;2071535;28;20633;-46
2022/04/25 00:47:34;;;;;;;2.20;2.00;;;;;19.50;99669.00;;;;2068069;28;20533;-46
2022/04/25 00:48:35;;;;;;;1.80;1.70;;;;;19.50;99655.00;;;;2067933;28;20316;-45
2022/04/25 00:49:35;;;;;;;1.87;1.77;;;;;19.50;99664.00;;;;2070686;28;20256;-46
2022/04/25 00:50:38;;;;;;;2.23;2.03;;;;;19.50;99667.00;;;;2079379;28;20251;-46
2022/04/25 00:51:39;;;;;;;2.47;2.20;;;;;19.50;99666.00;;;;2071413;28;20218;-45
2022/04/25 00:52:39;;;;;;;1.80;1.70;;;;;19.50;99659.00;;;;2076954;28;20278;-45
2022/04/25 00:53:39;;;;;;;2.30;2.10;;;;;19.50;99672.00;;;;2078350;28;20213;-45
2022/04/25 00:54:41;;;;;;;2.33;2.13;;;;;19.50;99665.00;;;;2078230;28;20221;-45
2022/04/25 00:55:41;;;;;;;1.95;1.85;;;;;19.50;99658.00;;;;2077902;28;20229;-46
2022/04/25 00:56:42;;;;;;;2.60;1.73;;;;;19.50;99676.00;;;;2070480;28;20226;-45
2022/04/25 00:57:42;;;;;;;1.97;1.87;;;;;19.50;99672.00;;;;2078681;28;20209;-46
2022/04/25 00:58:45;;;;;;;2.37;2.17;;;;;19.50;99677.00;;;;2078847;28;20451;-45
2022/04/25 00:59:46;;;;;;;1.75;1.65;;;;;19.50;99680.00;;;;2078802;28;20224;-45
2022/04/25 01:00:46;;;;;;;2.33;2.13;;;;;19.50;99682.00;;;;2069962;28;20573;-52
2022/04/25 01:01:47;;;;;;;2.27;2.07;;;;;19.50;99675.00;;;;2070815;28;20263;-48
2022/04/25 01:02:47;;;;;;;1.60;1.50;;;;;19.50;99677.00;;;;2070531;28;20552;-46
2022/04/25 01:03:48;;;;;;;2.47;1.73;;;;;19.50;99677.00;;;;2070800;28;20230;-46
2022/04/25 01:04:48;;;;;;;1.80;1.70;;;;;19.50;99671.00;;;;2071090;28;20325;-45
2022/04/25 01:05:49;;;;;;;1.90;1.80;;;;;19.50;99675.00;;;;2070066;28;20298;-45
2022/04/25 01:06:49;;;;;;;1.93;1.83;;;;;19.50;99670.00;;;;2073974;28;20224;-45
2022/04/25 01:07:50;;;;;;;2.40;1.93;;;;;19.50;99670.00;;;;2078364;28;20210;-46
2022/04/25 01:08:51;;;;;;;2.20;2.00;;;;;19.50;99679.00;;;;2071324;28;20218;-45
2022/04/25 01:09:51;;;;;;;1.95;1.80;;;;;19.50;99681.00;;;;2071481;28;20225;-44
2022/04/25 01:10:52;;;;;;;2.07;1.87;;;;;19.50;99667.00;;;;2071234;28;20208;-45
2022/04/25 01:11:52;;;;;;;1.80;1.70;;;;;19.50;99676.00;;;;2071183;28;20214;-45
2022/04/25 01:12:53;;;;;;;2.03;1.70;;;;;19.50;99681.00;;;;2070740;28;20703;-46
2022/04/25 01:13:53;;;;;;;2.10;1.90;;;;;19.50;99681.00;;;;2070957;28;20400;-45
2022/04/25 01:15:00;;;;;;;1.90;1.63;;;;;19.50;99689.00;;;;2071198;28;20791;-45
2022/04/25 01:16:00;;;;;;;2.10;1.70;;;;;19.50;99687.00;;;;2075554;28;20206;-45
2022/04/25 01:17:01;;;;;;;2.20;2.00;;;;;19.50;99685.00;;;;2078991;28;20674;-45
2022/04/25 01:18:02;;;;;;;2.00;1.90;;;;;19.50;99689.00;;;;2078679;28;20209;-45
2022/04/25 01:19:02;;;;;;;2.15;1.90;;;;;19.50;99686.00;;;;2079072;28;20220;-46
2022/04/25 01:20:04;;;;;;;1.80;1.70;;;;;19.50;99685.00;;;;2078122;28;20209;-45
2022/04/25 01:21:05;;;;;;;2.17;1.75;;;;;19.50;99683.00;;;;2079199;28;20321;-46
2022/04/25 01:22:12;;;;;;;1.85;1.75;;;;;19.50;99685.00;;;;2069908;28;20204;-45
2022/04/25 01:27:16;;;;;;;2.58;2.28;;;;;19.40;99673.00;;;;2070177;28;20206;-45
2022/04/25 01:28:16;;;;;;;2.10;1.90;;;;;19.40;99677.00;;;;2068414;28;20213;-44
2022/04/25 01:29:17;;;;;;;1.57;1.47;;;;;19.40;99671.00;;;;2081538;28;20229;-46
2022/04/25 01:30:17;;;;;;;1.67;1.57;;;;;19.40;99679.00;;;;2074811;28;20237;-45
2022/04/25 01:31:17;;;;;;;1.87;1.50;;;;;19.40;99667.00;;;;2078146;28;20213;-45
2022/04/25 01:32:20;;;;;;;2.07;1.90;;;;;19.50;99664.00;;;;2078732;28;20712;-45
2022/04/25 01:33:20;;;;;;;1.75;1.65;;;;;19.40;99656.00;;;;2078570;28;20267;-45
2022/04/25 01:34:20;;;;;;;2.13;1.97;;;;;19.50;99658.00;;;;2074634;28;20270;-45
2022/04/25 01:35:20;;;;;;;2.07;1.70;;;;;19.50;99659.00;;;;2070431;28;20210;-46
2022/04/25 01:36:24;;;;;;;1.70;1.60;;;;;19.50;99657.00;;;;2070556;28;20697;-46
2022/04/25 01:37:25;;;;;;;2.05;1.50;;;;;19.50;99656.00;;;;2069935;28;20310;-45
2022/04/25 01:38:25;;;;;;;1.60;1.50;;;;;19.50;99654.00;;;;2070687;28;20785;-46
2022/04/25 01:39:25;;;;;;;1.87;1.77;;;;;19.50;99658.00;;;;2069909;28;20233;-46
2022/04/25 01:40:26;;;;;;;1.67;1.57;;;;;19.50;99655.00;;;;2070156;28;20218;-45
2022/04/25 01:41:26;;;;;;;1.90;1.80;;;;;19.40;99652.00;;;;2070846;28;20218;-44
2022/04/25 01:42:26;;;;;;;1.50;1.40;;;;;19.50;99647.00;;;;2073938;28;20228;-46
2022/04/25 01:43:27;;;;;;;2.30;1.70;;;;;19.50;99652.00;;;;2070754;28;20214;-46
2022/04/25 01:44:27;;;;;;;2.00;1.80;;;;;19.50;99655.00;;;;2070636;28;20621;-46
2022/04/25 01:45:27;;;;;;;3.00;1.70;;;;;19.50;99656.00;;;;2077146;28;20221;-47
2022/04/25 01:46:28;;;;;;;1.80;1.70;;;;;19.50;99653.00;;;;2078699;28;20292;-45
2022/04/25 01:47:28;;;;;;;1.63;1.53;;;;;19.50;99653.00;;;;2078776;28;20220;-45
2022/04/25 01:48:29;;;;;;;2.03;1.93;;;;;19.50;99653.00;;;;2076845;28;20237;-48
2022/04/25 01:49:31;;;;;;;1.52;1.42;;;;;19.50;99657.00;;;;2070751;28;20690;-46
2022/04/25 01:50:31;;;;;;;1.90;1.80;;;;;19.40;99652.00;;;;2070813;28;20316;-47
2022/04/25 01:51:32;;;;;;;1.60;1.47;;;;;19.40;99661.00;;;;2075341;28;20213;-46
2022/04/25 01:52:33;;;;;;;3.37;1.70;;;;;19.40;99654.00;;;;2078175;28;20225;-45
2022/04/25 01:53:34;;;;;;;1.58;1.48;;;;;19.40;99654.00;;;;2070230;28;20253;-46
2022/04/25 01:54:34;;;;;;;2.00;1.80;;;;;19.40;99661.00;;;;2078130;28;20237;-45
2022/04/25 01:55:34;;;;;;;2.00;1.67;;;;;19.40;99656.00;;;;2072781;28;20300;-46
2022/04/25 01:56:35;;;;;;;1.73;1.60;;;;;19.40;99661.00;;;;2072146;28;20214;-46
2022/04/25 01:57:35;;;;;;;1.83;1.40;;;;;19.40;99656.00;;;;2078514;28;20232;-48
2022/04/25 01:58:35;;;;;;;1.87;1.60;;;;;19.40;99655.00;;;;2075116;28;20210;-46
2022/04/25 01:59:36;;;;;;;2.23;1.50;;;;;19.50;99657.00;;;;2075182;28;20270;-45
2022/04/25 02:00:37;;;;;;;1.67;1.30;;;;;19.50;99654.00;;;;2078812;28;20244;-45
2022/04/25 02:01:37;;;;;;;1.50;1.40;;;;;19.40;99657.00;;;;2072270;28;20517;-45
2022/04/25 02:02:37;;;;;;;1.60;1.50;;;;;19.40;99662.00;;;;2074059;28;20222;-44
2022/04/25 02:03:38;;;;;;;1.50;1.40;;;;;19.40;99661.00;;;;2070641;28;20249;-44
2022/04/25 02:04:39;;;;;;;1.60;1.50;;;;;19.40;99657.00;;;;2061696;28;20225;-47
2022/04/25 02:05:39;;;;;;;1.73;1.63;;;;;19.40;99659.00;;;;2061091;28;20265;-46
2022/04/25 02:06:39;;;;;;;1.80;1.70;;;;;19.40;99651.00;;;;2070646;28;20214;-45
2022/04/25 02:07:40;;;;;;;1.50;1.40;;;;;19.40;99654.00;;;;2070458;28;20217;-46
2022/04/25 02:08:40;;;;;;;1.83;1.50;;;;;19.40;99658.00;;;;2070838;28;20866;-46
2022/04/25 02:09:41;;;;;;;1.70;1.60;;;;;19.40;99661.00;;;;2070797;28;20252;-46
2022/04/25 02:11:19;;;;;;;1.63;1.53;;;;;19.40;99661.00;;;;2064505;28;20345;-46
2022/04/25 02:12:01;;;;;;;1.63;1.52;;;;;19.40;99653.00;;;;2076735;28;20642;-45
2022/04/25 02:13:02;;;;;;;1.47;1.37;;;;;19.40;99658.00;;;;2077611;28;20225;-46
2022/04/25 02:14:02;;;;;;;1.60;1.50;;;;;19.40;99660.00;;;;2078768;28;20221;-46
2022/04/25 02:15:03;;;;;;;1.63;1.53;;;;;19.40;99661.00;;;;2078605;28;20273;-46
2022/04/25 02:16:04;;;;;;;1.40;1.30;;;;;19.40;99657.00;;;;2077902;28;20218;-44
2022/04/25 02:17:04;;;;;;;1.50;1.40;;;;;19.40;99666.00;;;;2078626;28;20220;-46
2022/04/25 02:18:04;;;;;;;1.43;1.33;;;;;19.40;99672.00;;;;2077064;28;20216;-46
2022/04/25 02:19:05;;;;;;;1.70;1.60;;;;;19.40;99670.00;;;;2078554;28;20788;-46
2022/04/25 02:20:06;;;;;;;1.47;1.37;;;;;19.40;99674.00;;;;2072235;28;20686;-45
2022/04/25 02:21:07;;;;;;;1.77;1.67;;;;;19.40;99676.00;;;;2070615;28;20321;-46
2022/04/25 02:22:07;;;;;;;1.87;1.50;;;;;19.40;99681.00;;;;2075282;28;20217;-46
2022/04/25 02:23:07;;;;;;;1.60;1.50;;;;;19.40;99665.00;;;;2075038;28;20218;-45
2022/04/25 02:24:08;;;;;;;2.20;1.50;;;;;19.40;99670.00;;;;2078684;28;20236;-47
2022/04/25 02:25:09;;;;;;;1.50;1.40;;;;;19.40;99678.00;;;;2076811;28;20268;-46
2022/04/25 02:26:09;;;;;;;1.73;1.63;;;;;19.40;99679.00;;;;2069649;28;20639;-46
2022/04/25 02:27:10;;;;;;;1.93;1.40;;;;;19.40;99674.00;;;;2070394;28;20532;-46
2022/04/25 02:28:10;;;;;;;1.60;1.50;;;;;19.40;99669.00;;;;2069097;28;20217;-46
2022/04/25 02:29:10;;;;;;;1.60;1.50;;;;;19.40;99675.00;;;;2070429;28;20210;-46
2022/04/25 02:30:11;;;;;;;1.70;1.50;;;;;19.20;99678.00;;;;2069583;28;20272;-45
2022/04/25 02:31:11;;;;;;;1.60;1.50;;;;;19.40;99683.00;;;;2070363;28;20214;-46
2022/04/25 02:32:12;;;;;;;1.70;1.60;;;;;19.40;99680.00;;;;2069829;28;20290;-46
2022/04/25 02:33:13;;;;;;;1.42;1.33;;;;;19.40;99670.00;;;;2071502;28;20746;-46
2022/04/25 02:34:13;;;;;;;1.70;1.60;;;;;19.40;99679.00;;;;2071744;28;20218;-46
2022/04/25 02:35:14;;;;;;;1.20;1.10;;;;;19.40;99674.00;;;;2076344;28;20217;-46
2022/04/25 02:36:14;;;;;;;1.83;1.50;;;;;19.40;99678.00;;;;2078809;28;20209;-46
2022/04/25 02:37:15;;;;;;;1.70;1.60;;;;;19.40;99677.00;;;;2079359;28;20241;-45
2022/04/25 02:38:16;;;;;;;2.45;1.52;;;;;19.40;99630.00;;;;2079334;28;20266;-46
2022/04/25 02:39:16;;;;;;;1.40;1.30;;;;;19.40;99673.00;;;;2080344;28;20698;-46
2022/04/25 02:40:16;;;;;;;1.40;1.30;;;;;19.40;99673.00;;;;2080233;28;20213;-45
2022/04/25 02:41:17;;;;;;;1.50;1.40;;;;;19.40;99671.00;;;;2080418;28;20236;-45
2022/04/25 02:42:17;;;;;;;1.43;1.33;;;;;19.40;99677.00;;;;2072510;28;20210;-46
2022/04/25 02:43:17;;;;;;;1.60;1.50;;;;;19.40;99672.00;;;;2072047;28;20229;-46
2022/04/25 02:44:18;;;;;;;1.40;1.30;;;;;19.40;99667.00;;;;2071857;28;20209;-46
2022/04/25 02:45:18;;;;;;;1.37;1.27;;;;;19.40;99664.00;;;;2071777;28;20647;-46
2022/04/25 02:46:19;;;;;;;1.50;1.40;;;;;19.40;99666.00;;;;2064593;28;20203;-46
2022/04/25 02:47:19;;;;;;;1.40;1.30;;;;;19.40;99662.00;;;;2087340;28;20224;-45
2022/04/25 02:48:19;;;;;;;2.03;1.63;;;;;19.40;99660.00;;;;2084911;28;20220;-46
2022/04/25 02:49:19;;;;;;;1.43;1.33;;;;;19.40;99661.00;;;;2079441;28;20324;-46
2022/04/25 02:50:20;;;;;;;1.80;1.70;;;;;19.40;99659.00;;;;2080068;28;20213;-46
2022/04/25 02:51:20;;;;;;;1.60;1.40;;;;;19.40;99658.00;;;;2075591;28;20284;-46
2022/04/25 02:52:21;;;;;;;1.80;1.33;;;;;19.40;99658.00;;;;2072035;28;20241;-46
2022/04/25 02:53:24;;;;;;;1.33;1.23;;;;;19.40;99655.00;;;;2070763;28;20218;-46
2022/04/25 02:54:24;;;;;;;1.30;1.20;;;;;19.40;99651.00;;;;2071958;28;20280;-45
2022/04/25 02:55:25;;;;;;;1.43;1.33;;;;;19.40;99653.00;;;;2075797;28;20213;-46
2022/04/25 02:56:25;;;;;;;1.48;1.38;;;;;19.40;99647.00;;;;2080263;28;20217;-46
2022/04/25 02:57:26;;;;;;;1.47;1.37;;;;;19.40;99649.00;;;;2080235;28;20247;-44
2022/04/25 02:58:26;;;;;;;1.50;1.40;;;;;19.40;99654.00;;;;2080276;28;20213;-46
2022/04/25 02:59:27;;;;;;;1.70;1.60;;;;;19.40;99651.00;;;;2079742;28;20228;-46
2022/04/25 03:00:27;;;;;;;1.50;1.40;;;;;19.40;99647.00;;;;2079831;28;20217;-46
2022/04/25 03:01:27;;;;;;;1.40;1.30;;;;;19.40;99649.00;;;;2080082;28;20797;-46
2022/04/25 03:02:28;;;;;;;1.53;1.40;;;;;19.40;99647.00;;;;2079959;28;20677;-46
2022/04/25 03:03:28;;;;;;;1.37;1.27;;;;;19.40;99647.00;;;;2079858;28;20591;-46
2022/04/25 03:04:28;;;;;;;1.73;1.30;;;;;19.40;99646.00;;;;2079965;28;20558;-46
2022/04/25 03:05:29;;;;;;;1.60;1.50;;;;;19.40;99642.00;;;;2078990;28;20221;-46
2022/04/25 03:06:30;;;;;;;1.50;1.40;;;;;19.40;99638.00;;;;2080272;28;20303;-46
2022/04/25 03:07:30;;;;;;;1.63;1.52;;;;;19.40;99646.00;;;;2079641;28;20206;-46
2022/04/25 03:08:31;;;;;;;1.43;1.33;;;;;19.40;99645.00;;;;2080332;28;20236;-46
2022/04/25 03:09:31;;;;;;;1.60;1.43;;;;;19.40;99635.00;;;;2077272;28;20366;-46
2022/04/25 03:10:32;;;;;;;1.50;1.23;;;;;19.40;99640.00;;;;2071188;28;20210;-47
2022/04/25 03:11:34;;;;;;;2.33;1.40;;;;;19.40;99634.00;;;;2071985;28;20218;-45
2022/04/25 03:12:38;;;;;;;1.80;1.45;;;;;19.40;99631.00;;;;2071760;28;20973;-45
2022/04/25 03:13:38;;;;;;;1.50;1.40;;;;;19.40;99630.00;;;;2071385;28;20210;-46
2022/04/25 03:14:39;;;;;;;2.00;1.70;;;;;19.40;99641.00;;;;2071466;28;20698;-45
2022/04/25 03:15:39;;;;;;;1.57;1.47;;;;;19.40;99636.00;;;;2070823;28;20214;-45
2022/04/25 03:16:40;;;;;;;1.30;1.20;;;;;19.40;99629.00;;;;2071726;28;20263;-45
2022/04/25 03:17:41;;;;;;;1.20;1.10;;;;;19.40;99642.00;;;;2073949;28;20225;-45
2022/04/25 03:18:41;;;;;;;1.70;1.60;;;;;19.40;99635.00;;;;2079612;28;20218;-45
2022/04/25 03:19:44;;;;;;;1.40;1.30;;;;;19.40;99630.00;;;;2079435;28;20244;-45
2022/04/25 03:20:46;;;;;;;1.95;1.63;;;;;19.40;99627.00;;;;2079714;28;20229;-45
2022/04/25 03:21:46;;;;;;;1.70;1.60;;;;;19.40;99626.00;;;;2079859;28;20275;-45
2022/04/25 03:22:47;;;;;;;1.47;1.37;;;;;19.40;99625.00;;;;2079793;28;20213;-46
2022/04/25 03:23:47;;;;;;;1.30;1.20;;;;;19.40;99631.00;;;;2079817;28;20528;-46
2022/04/25 03:24:47;;;;;;;1.53;1.43;;;;;19.40;99630.00;;;;2079448;28;20213;-45
2022/04/25 03:25:48;;;;;;;1.20;1.10;;;;;19.40;99635.00;;;;2079200;28;20685;-45
2022/04/25 03:26:48;;;;;;;1.30;1.20;;;;;19.40;99631.00;;;;2079733;28;20237;-45
2022/04/25 03:27:49;;;;;;;1.70;1.53;;;;;19.40;99625.00;;;;2078925;28;20255;-44
2022/04/25 03:28:49;;;;;;;1.37;1.27;;;;;19.40;99644.00;;;;2079591;28;20210;-45
2022/04/25 03:29:49;;;;;;;1.30;1.20;;;;;19.40;99625.00;;;;2079980;28;20693;-46
2022/04/25 03:30:50;;;;;;;1.23;1.10;;;;;19.40;99635.00;;;;2078029;28;20202;-45
2022/04/25 03:31:50;;;;;;;1.50;1.40;;;;;19.40;99634.00;;;;2079775;28;20260;-44
2022/04/25 03:32:50;;;;;;;1.30;1.20;;;;;19.40;99635.00;;;;2079659;28;20209;-45
2022/04/25 03:33:51;;;;;;;1.43;1.33;;;;;19.40;99626.00;;;;2079571;28;20205;-44
2022/04/25 03:34:51;;;;;;;1.40;1.30;;;;;19.40;99638.00;;;;2079585;28;20209;-45
2022/04/25 03:35:52;;;;;;;1.93;1.40;;;;;19.40;99638.00;;;;2078805;28;20288;-45
2022/04/25 03:36:54;;;;;;;1.23;1.13;;;;;19.40;99641.00;;;;2079644;28;20818;-45
2022/04/25 03:37:55;;;;;;;1.65;1.55;;;;;19.40;99647.00;;;;2079375;28;20206;-45
2022/04/25 03:38:55;;;;;;;1.60;1.50;;;;;19.40;99645.00;;;;2079718;28;20221;-45
2022/04/25 03:39:55;;;;;;;1.67;1.57;;;;;19.40;99646.00;;;;2079474;28;20225;-45
2022/04/25 03:40:56;;;;;;;1.33;1.23;;;;;19.40;99648.00;;;;2079685;28;20217;-46
2022/04/25 03:41:56;;;;;;;1.40;1.30;;;;;19.40;99648.00;;;;2079420;28;20285;-45
2022/04/25 03:42:56;;;;;;;1.40;1.30;;;;;19.40;99655.00;;;;2078422;28;20202;-45
2022/04/25 03:43:57;;;;;;;1.40;1.30;;;;;19.40;99648.00;;;;2079499;28;20209;-44
2022/04/25 03:44:58;;;;;;;1.40;1.30;;;;;19.40;99654.00;;;;2078797;28;20218;-45
2022/04/25 03:45:59;;;;;;;1.50;1.40;;;;;19.40;99661.00;;;;2078906;28;20216;-45
2022/04/25 03:46:59;;;;;;;1.60;1.50;;;;;19.40;99647.00;;;;2078810;28;20488;-44
2022/04/25 03:48:00;;;;;;;1.67;1.40;;;;;19.40;99647.00;;;;2078604;28;20451;-45
2022/04/25 03:49:00;;;;;;;1.30;1.20;;;;;19.40;99647.00;;;;2079602;28;22514;-45
2022/04/25 03:50:00;;;;;;;1.50;1.37;;;;;19.40;99651.00;;;;2079242;28;20224;-46
2022/04/25 03:51:01;;;;;;;1.50;1.40;;;;;19.40;99647.00;;;;2076872;28;20280;-45
2022/04/25 03:52:01;;;;;;;1.50;1.40;;;;;19.40;99662.00;;;;2071656;28;20330;-45
2022/04/25 03:53:06;;;;;;;1.90;1.60;;;;;19.40;99652.00;;;;2071272;28;20222;-44
2022/04/25 03:54:07;;;;;;;1.52;1.40;;;;;19.40;99656.00;;;;2071338;28;20296;-47
2022/04/25 03:57:46;;;;;;;1.40;1.30;;;;;19.40;99653.00;;;;2078761;28;20639;-46
2022/04/25 03:58:46;;;;;;;1.33;1.23;;;;;19.40;99657.00;;;;2079351;28;20221;-45
2022/04/25 03:59:46;;;;;;;1.87;1.50;;;;;19.40;99661.00;;;;2078901;28;20245;-44
2022/04/25 04:00:47;;;;;;;1.30;1.20;;;;;19.40;99653.00;;;;2079575;28;20216;-45
2022/04/25 04:01:47;;;;;;;1.30;1.20;;;;;19.40;99656.00;;;;2079497;28;20206;-45
2022/04/25 04:02:47;;;;;;;1.40;1.27;;;;;19.40;99665.00;;;;2079291;28;20747;-45
2022/04/25 04:03:48;;;;;;;1.60;1.40;;;;;19.40;99660.00;;;;2079293;28;20249;-45
2022/04/25 04:04:49;;;;;;;1.33;1.23;;;;;19.40;99665.00;;;;2079508;28;20878;-45
2022/04/25 04:05:50;;;;;;;1.30;1.20;;;;;19.40;99663.00;;;;2078517;28;20225;-45
2022/04/25 04:06:51;;;;;;;1.77;1.30;;;;;19.40;99658.00;;;;2079374;28;20286;-45
2022/04/25 04:07:51;;;;;;;1.40;1.30;;;;;19.40;99660.00;;;;2079015;28;20291;-46
2022/04/25 04:08:52;;;;;;;1.43;1.33;;;;;19.40;99656.00;;;;2079074;28;20213;-45
2022/04/25 04:09:52;;;;;;;1.30;1.20;;;;;19.40;99656.00;;;;2079480;28;20240;-45
2022/04/25 04:10:52;;;;;;;1.30;1.20;;;;;19.40;99661.00;;;;2079475;28;20213;-45
2022/04/25 04:11:53;;;;;;;1.37;1.27;;;;;19.40;99666.00;;;;2079252;28;20232;-45
2022/04/25 04:12:54;;;;;;;1.53;1.43;;;;;19.40;99664.00;;;;2079397;28;20218;-44
2022/04/25 04:13:55;;;;;;;1.60;1.50;;;;;19.40;99667.00;;;;2079461;28;20229;-45
2022/04/25 04:14:55;;;;;;;1.30;1.20;;;;;19.40;99664.00;;;;2079275;28;20236;-45
2022/04/25 04:15:56;;;;;;;1.30;1.20;;;;;19.40;99662.00;;;;2078402;28;21018;-45
2022/04/25 04:16:56;;;;;;;1.33;1.23;;;;;19.40;99670.00;;;;2079149;28;20228;-44
2022/04/25 04:17:57;;;;;;;1.40;1.30;;;;;19.40;99674.00;;;;2077064;28;20452;-45
2022/04/25 04:18:57;;;;;;;1.47;1.37;;;;;19.40;99669.00;;;;2070999;28;20215;-44
2022/04/25 04:19:58;;;;;;;1.30;1.20;;;;;19.40;99681.00;;;;2071304;28;20453;-46
2022/04/25 04:20:58;;;;;;;1.50;1.40;;;;;19.40;99665.00;;;;2071122;28;20210;-46
2022/04/25 04:22:01;;;;;;;1.30;1.20;;;;;19.40;99675.00;;;;2071392;28;20202;-45
2022/04/25 04:23:01;;;;;;;1.65;1.55;;;;;19.40;99671.00;;;;2071156;28;20284;-45
2022/04/25 04:24:02;;;;;;;1.40;1.30;;;;;19.40;99671.00;;;;2071140;28;20284;-45
2022/04/25 04:25:03;;;;;;;1.30;1.20;;;;;19.40;99680.00;;;;2069655;28;20572;-46
2022/04/25 04:26:03;;;;;;;1.40;1.15;;;;;19.40;99687.00;;;;2070160;28;20210;-44
2022/04/25 04:27:04;;;;;;;1.60;1.50;;;;;19.40;99680.00;;;;2069949;28;20214;-46
2022/04/25 04:28:06;;;;;;;1.38;1.27;;;;;19.40;99685.00;;;;2070660;28;20252;-45
2022/04/25 04:29:06;;;;;;;1.35;1.25;;;;;19.40;99688.00;;;;2071196;28;20317;-47
2022/04/25 04:30:11;;;;;;;1.50;1.40;;;;;19.40;99691.00;;;;2071166;28;20226;-45
2022/04/25 04:31:11;;;;;;;1.30;1.20;;;;;19.40;99685.00;;;;2071136;28;20214;-44
2022/04/25 04:32:14;;;;;;;1.47;1.30;;;;;19.40;99692.00;;;;2070969;28;21090;-45
2022/04/25 04:33:14;;;;;;;1.50;1.30;;;;;19.40;99692.00;;;;2071126;28;20222;-45
2022/04/25 04:34:15;;;;;;;1.33;1.23;;;;;19.40;99695.00;;;;2071085;28;20218;-46
2022/04/25 04:36:17;;;;;;;1.57;1.47;;;;;19.40;99709.00;;;;2078342;28;20210;-47
2022/04/25 04:36:37;;;;;;;1.45;1.35;;;;;19.40;99706.00;;;;2078937;28;20225;-47
2022/04/25 04:37:38;;;;;;;1.40;1.30;;;;;19.40;99692.00;;;;2078942;28;20978;-45
2022/04/25 04:38:38;;;;;;;1.63;1.40;;;;;19.40;99707.00;;;;2079135;28;20709;-44
2022/04/25 04:39:38;;;;;;;1.50;1.40;;;;;19.40;99706.00;;;;2079253;28;20933;-45
2022/04/25 04:40:39;;;;;;;1.60;1.50;;;;;19.40;99709.00;;;;2078895;28;20225;-44
2022/04/25 04:41:39;;;;;;;1.40;1.30;;;;;19.40;99705.00;;;;2078690;28;20308;-47
2022/04/25 04:42:39;;;;;;;1.50;1.40;;;;;19.40;99710.00;;;;2079070;28;20229;-45
2022/04/25 04:43:40;;;;;;;1.43;1.33;;;;;19.40;99716.00;;;;2079055;28;20218;-45
2022/04/25 04:44:42;;;;;;;1.40;1.30;;;;;19.40;99716.00;;;;2079131;28;20312;-44
2022/04/25 04:45:44;;;;;;;1.45;1.10;;;;;19.40;99713.00;;;;2078154;28;20751;-45
2022/04/25 04:46:44;;;;;;;1.10;1.00;;;;;19.40;99718.00;;;;2079181;28;20216;-45
2022/04/25 04:47:44;;;;;;;1.73;1.50;;;;;19.40;99710.00;;;;2079004;28;20213;-46
2022/04/25 04:48:45;;;;;;;1.40;1.30;;;;;19.40;99715.00;;;;2078661;28;20213;-46
2022/04/25 04:49:46;;;;;;;1.47;1.37;;;;;19.40;99720.00;;;;2078977;28;20245;-46
2022/04/25 04:50:46;;;;;;;1.30;1.20;;;;;19.40;99720.00;;;;2078809;28;20218;-45
2022/04/25 04:51:46;;;;;;;1.50;1.40;;;;;19.40;99722.00;;;;2079205;28;20275;-45
2022/04/25 04:52:52;;;;;;;1.37;1.27;;;;;19.40;99714.00;;;;2078234;28;20233;-44
2022/04/25 04:53:52;;;;;;;1.30;1.20;;;;;19.40;99725.00;;;;2078052;28;20218;-45
2022/04/25 04:54:52;;;;;;;1.30;1.20;;;;;19.40;99726.00;;;;2078503;28;20229;-45
2022/04/25 04:55:53;;;;;;;2.23;1.50;;;;;19.40;99720.00;;;;2071685;28;20206;-44
2022/04/25 04:56:53;;;;;;;1.73;1.63;;;;;19.40;99729.00;;;;2070913;28;20218;-45
2022/04/25 04:57:55;;;;;;;1.37;1.27;;;;;19.40;99733.00;;;;2059861;28;20617;-46
2022/04/25 04:58:56;;;;;;;1.60;1.50;;;;;19.40;99728.00;;;;2069589;28;20305;-46
2022/04/25 04:59:56;;;;;;;1.30;1.20;;;;;19.40;99734.00;;;;2078280;28;20214;-45
2022/04/25 05:00:56;;;;;;;2.00;1.80;;;;;19.40;99729.00;;;;2078393;28;20259;-46
2022/04/25 05:01:56;;;;;;;1.50;1.40;;;;;19.40;99727.00;;;;2078556;28;20209;-46
2022/04/25 05:02:57;;;;;;;1.57;1.47;;;;;19.40;99737.00;;;;2078607;28;20254;-46
2022/04/25 05:04:00;;;;;;;1.37;1.27;;;;;19.40;99731.00;;;;2078485;28;20213;-45
2022/04/25 05:05:00;;;;;;;1.30;1.20;;;;;19.40;99731.00;;;;2078790;28;20205;-46
2022/04/25 05:06:01;;;;;;;1.47;1.37;;;;;19.40;99726.00;;;;2076724;28;20255;-46
2022/04/25 05:07:01;;;;;;;1.40;1.30;;;;;19.40;99732.00;;;;2070757;28;20272;-45
2022/04/25 05:08:02;;;;;;;2.03;1.50;;;;;19.40;99741.00;;;;2073738;28;20210;-46
2022/04/25 05:09:02;;;;;;;1.60;1.20;;;;;19.40;99736.00;;;;2077712;28;20210;-46
2022/04/25 05:10:09;;;;;;;1.50;1.40;;;;;19.40;99743.00;;;;2070760;28;20445;-45
2022/04/25 05:11:10;;;;;;;1.42;1.33;;;;;19.40;99733.00;;;;2070870;28;20206;-45